Time;durP1;ratioP1;P1;durP2;ratioP2;P2;SDS_P1;SDS_P2;PMS_P1;PMS_P2;Temp;Humidity;BMP_temperature;BMP_pressure;BME280_temperature;BME280_humidity;BME280_pressure;Samples;Min_cycle;Max_cycle;Signal;HPM_P1;HPM_P2
2023/09/08 00:01:00;;;;;;;1.33;1.23;;;;;;;;;;4983238;28;58190;-72
2023/09/08 00:03:26;;;;;;;1.77;1.63;;;;;;;;;;4984279;28;58094;-73
2023/09/08 00:05:51;;;;;;;1.53;1.33;;;;;;;;;;4980282;28;57915;-73
2023/09/08 00:08:16;;;;;;;1.37;1.27;;;;;;;;;;4983629;28;58127;-71
2023/09/08 00:10:41;;;;;;;1.33;1.23;;;;;;;;;;4984864;28;57990;-74
2023/09/08 00:13:06;;;;;;;3.80;1.73;;;;;;;;;;4982675;28;57855;-72
2023/09/08 00:15:33;;;;;;;1.97;1.87;;;;;;;;;;4984226;28;57827;-74
2023/09/08 00:17:59;;;;;;;1.73;1.63;;;;;;;;;;4982620;28;58074;-71
2023/09/08 00:20:24;;;;;;;1.35;1.25;;;;;;;;;;4982713;28;58966;-71
2023/09/08 00:22:49;;;;;;;1.30;1.20;;;;;;;;;;4982216;28;58225;-72
2023/09/08 00:25:14;;;;;;;1.50;1.40;;;;;;;;;;4981357;28;57819;-72
2023/09/08 00:27:40;;;;;;;1.53;1.43;;;;;;;;;;4982983;28;57960;-72
2023/09/08 00:30:05;;;;;;;1.43;1.33;;;;;;;;;;4981838;28;58095;-71
2023/09/08 00:32:30;;;;;;;1.80;1.70;;;;;;;;;;4984462;28;57828;-71
2023/09/08 00:34:55;;;;;;;1.70;1.60;;;;;;;;;;4982858;28;58131;-73
2023/09/08 00:37:21;;;;;;;1.40;1.30;;;;;;;;;;4984015;28;57809;-71
2023/09/08 00:39:46;;;;;;;1.63;1.40;;;;;;;;;;4982481;28;58245;-75
2023/09/08 00:42:11;;;;;;;2.47;1.93;;;;;;;;;;4983152;28;57779;-73
2023/09/08 00:44:36;;;;;;;2.03;1.83;;;;;;;;;;4983542;28;57634;-75
2023/09/08 00:47:01;;;;;;;1.50;1.40;;;;;;;;;;4982619;28;57862;-75
2023/09/08 00:49:28;;;;;;;1.37;1.20;;;;;;;;;;4981788;28;58107;-74
2023/09/08 00:51:53;;;;;;;1.65;1.52;;;;;;;;;;4983079;28;57844;-75
2023/09/08 00:54:18;;;;;;;2.10;1.83;;;;;;;;;;4981824;28;58080;-75
2023/09/08 00:56:44;;;;;;;2.37;1.40;;;;;;;;;;4983950;28;57819;-75
2023/09/08 00:59:09;;;;;;;1.50;1.40;;;;;;;;;;4981253;28;59671;-75
2023/09/08 01:01:34;;;;;;;0.90;0.90;;;;;;;;;;4983529;28;58192;-75
2023/09/08 01:04:00;;;;;;;1.60;1.50;;;;;;;;;;4982468;28;57803;-74
2023/09/08 01:06:26;;;;;;;1.60;1.50;;;;;;;;;;4981439;28;59404;-75
2023/09/08 01:08:51;;;;;;;1.40;1.30;;;;;;;;;;4980150;28;58182;-75
2023/09/08 01:11:18;;;;;;;1.80;1.70;;;;;;;;;;4981706;28;58996;-74
2023/09/08 01:13:44;;;;;;;2.08;1.88;;;;;;;;;;4982173;28;59735;-74
2023/09/08 01:16:09;;;;;;;1.63;1.50;;;;;;;;;;4984659;28;57880;-77
2023/09/08 01:18:34;;;;;;;1.35;1.25;;;;;;;;;;4982865;28;57870;-74
2023/09/08 01:20:59;;;;;;;1.63;1.53;;;;;;;;;;4982327;28;57261;-74
2023/09/08 01:23:28;;;;;;;1.52;1.42;;;;;;;;;;4983774;28;59619;-74
2023/09/08 01:26:03;;;;;;;1.50;1.40;;;;;;;;;;4979303;28;58985;-74
2023/09/08 01:28:28;;;;;;;1.35;1.25;;;;;;;;;;4981482;28;58094;-75
2023/09/08 01:30:55;;;;;;;1.67;1.58;;;;;;;;;;4981000;28;58079;-75
2023/09/08 01:33:22;;;;;;;1.45;1.35;;;;;;;;;;4982876;28;58288;-74
2023/09/08 01:35:47;;;;;;;1.65;1.55;;;;;;;;;;4998697;28;57662;-74
2023/09/08 01:38:12;;;;;;;1.33;1.23;;;;;;;;;;4982569;28;58332;-75
2023/09/08 01:40:37;;;;;;;1.73;1.63;;;;;;;;;;4981068;28;58007;-76
2023/09/08 01:43:03;;;;;;;1.50;1.40;;;;;;;;;;4982110;28;58832;-75
2023/09/08 01:45:28;;;;;;;1.67;1.50;;;;;;;;;;4980751;28;58508;-75
2023/09/08 01:47:53;;;;;;;1.63;1.52;;;;;;;;;;4983926;28;57983;-75
2023/09/08 01:50:21;;;;;;;1.60;1.43;;;;;;;;;;4983568;28;57812;-74
2023/09/08 01:52:46;;;;;;;2.05;1.95;;;;;;;;;;4982020;28;59033;-75
2023/09/08 01:55:12;;;;;;;1.60;1.50;;;;;;;;;;4982335;28;58152;-71
2023/09/08 01:57:37;;;;;;;1.50;1.40;;;;;;;;;;4984299;28;58589;-72
2023/09/08 02:00:02;;;;;;;1.20;1.10;;;;;;;;;;4981142;28;57926;-72
2023/09/08 02:02:27;;;;;;;1.70;1.60;;;;;;;;;;4981978;28;58021;-72
2023/09/08 02:04:52;;;;;;;1.70;1.60;;;;;;;;;;4981890;28;59341;-76
2023/09/08 02:07:18;;;;;;;1.43;1.33;;;;;;;;;;4985587;28;57891;-74
2023/09/08 02:09:43;;;;;;;1.50;1.40;;;;;;;;;;4985002;28;57892;-75
2023/09/08 02:12:08;;;;;;;1.55;1.45;;;;;;;;;;4984931;28;58093;-75
2023/09/08 02:14:33;;;;;;;2.10;1.50;;;;;;;;;;4987001;28;58125;-74
2023/09/08 02:16:58;;;;;;;1.40;1.30;;;;;;;;;;4985776;28;58031;-75
2023/09/08 02:19:23;;;;;;;1.33;1.23;;;;;;;;;;4984988;28;57982;-74
2023/09/08 02:21:49;;;;;;;1.58;1.45;;;;;;;;;;4985007;28;57861;-75
2023/09/08 02:24:14;;;;;;;1.50;1.40;;;;;;;;;;4984439;28;58259;-75
2023/09/08 02:26:41;;;;;;;1.30;1.20;;;;;;;;;;4984034;28;57968;-75
2023/09/08 02:29:07;;;;;;;1.48;1.38;;;;;;;;;;4985075;28;57871;-74
2023/09/08 02:31:32;;;;;;;1.40;1.30;;;;;;;;;;4982512;28;58626;-74
2023/09/08 02:33:57;;;;;;;1.58;1.48;;;;;;;;;;4985240;28;58021;-75
2023/09/08 02:36:25;;;;;;;1.10;1.10;;;;;;;;;;4987023;28;58551;-75
2023/09/08 02:38:56;;;;;;;1.45;1.35;;;;;;;;;;4983825;28;59344;-74
2023/09/08 02:41:22;;;;;;;1.45;1.35;;;;;;;;;;4984511;28;57920;-75
2023/09/08 02:43:47;;;;;;;1.85;1.75;;;;;;;;;;4984634;28;58130;-75
2023/09/08 02:46:12;;;;;;;1.90;1.80;;;;;;;;;;4985377;28;57756;-75
2023/09/08 02:48:37;;;;;;;1.30;1.20;;;;;;;;;;4985917;28;57941;-75
2023/09/08 02:51:03;;;;;;;1.60;1.50;;;;;;;;;;4980575;28;58181;-78
2023/09/08 02:53:28;;;;;;;1.20;1.20;;;;;;;;;;4984735;28;57956;-74
2023/09/08 02:55:54;;;;;;;1.60;1.50;;;;;;;;;;4982407;28;58809;-75
2023/09/08 02:58:19;;;;;;;1.40;1.30;;;;;;;;;;4982868;28;58783;-75
2023/09/08 03:00:44;;;;;;;1.80;1.70;;;;;;;;;;4985336;28;57849;-74
2023/09/08 03:03:09;;;;;;;1.50;1.40;;;;;;;;;;5000547;28;59528;-74
2023/09/08 03:05:35;;;;;;;1.67;1.57;;;;;;;;;;4983111;28;57975;-72
2023/09/08 03:08:00;;;;;;;1.40;1.30;;;;;;;;;;4983907;28;57920;-73
2023/09/08 03:10:25;;;;;;;2.20;2.00;;;;;;;;;;4982671;28;58256;-72
2023/09/08 03:12:50;;;;;;;1.70;1.60;;;;;;;;;;4982620;28;58229;-73
2023/09/08 03:15:15;;;;;;;1.40;1.30;;;;;;;;;;4984847;28;57892;-72
2023/09/08 03:17:40;;;;;;;1.50;1.40;;;;;;;;;;4984138;28;58104;-72
2023/09/08 03:20:07;;;;;;;1.63;1.52;;;;;;;;;;4983213;28;58045;-72
2023/09/08 03:22:32;;;;;;;1.63;1.52;;;;;;;;;;4983798;28;58521;-73
2023/09/08 03:24:57;;;;;;;1.30;1.30;;;;;;;;;;4982291;28;58977;-71
2023/09/08 03:27:22;;;;;;;1.27;1.20;;;;;;;;;;4986054;28;57866;-71
2023/09/08 03:29:48;;;;;;;1.60;1.50;;;;;;;;;;4983329;28;59279;-71
2023/09/08 03:32:13;;;;;;;1.77;1.42;;;;;;;;;;4983412;28;58230;-71
2023/09/08 03:34:39;;;;;;;1.57;1.47;;;;;;;;;;4984804;28;57888;-71
2023/09/08 03:37:04;;;;;;;1.83;1.70;;;;;;;;;;4983512;28;60119;-72
2023/09/08 03:39:29;;;;;;;1.90;1.80;;;;;;;;;;5000325;28;58102;-71
2023/09/08 03:41:55;;;;;;;1.77;1.67;;;;;;;;;;4983157;28;57901;-72
2023/09/08 03:44:20;;;;;;;1.70;1.60;;;;;;;;;;4985295;28;58687;-70
2023/09/08 03:46:45;;;;;;;1.50;1.40;;;;;;;;;;4983754;28;58043;-72
2023/09/08 03:49:10;;;;;;;1.57;1.47;;;;;;;;;;4982581;28;59230;-72
2023/09/08 03:51:35;;;;;;;1.63;1.52;;;;;;;;;;4984651;28;57844;-72
2023/09/08 03:54:00;;;;;;;1.73;1.63;;;;;;;;;;4981822;28;57931;-72
2023/09/08 03:56:26;;;;;;;1.88;1.30;;;;;;;;;;4982515;28;58983;-72
2023/09/08 03:58:51;;;;;;;1.70;1.60;;;;;;;;;;4982974;28;58030;-72
2023/09/08 04:01:16;;;;;;;1.73;1.63;;;;;;;;;;4983146;28;60338;-72
2023/09/08 04:03:41;;;;;;;1.45;1.35;;;;;;;;;;4983597;28;57993;-72
2023/09/08 04:06:08;;;;;;;1.60;1.50;;;;;;;;;;4983922;28;57988;-71
2023/09/08 04:08:33;;;;;;;1.90;1.80;;;;;;;;;;4980745;28;59262;-72
2023/09/08 04:10:58;;;;;;;1.63;1.52;;;;;;;;;;4981420;28;59256;-71
2023/09/08 04:13:23;;;;;;;1.58;1.48;;;;;;;;;;4978708;28;58306;-72
2023/09/08 04:15:48;;;;;;;1.90;1.67;;;;;;;;;;4981373;28;58878;-74
2023/09/08 04:18:13;;;;;;;1.53;1.43;;;;;;;;;;5002651;28;57791;-74
2023/09/08 04:20:39;;;;;;;1.90;1.80;;;;;;;;;;4982780;28;58473;-75
2023/09/08 04:23:04;;;;;;;2.00;1.85;;;;;;;;;;4979610;28;59185;-75
2023/09/08 04:25:29;;;;;;;1.70;1.60;;;;;;;;;;4979173;28;57836;-75
2023/09/08 04:27:54;;;;;;;1.45;1.35;;;;;;;;;;4980566;28;58715;-75
2023/09/08 04:30:20;;;;;;;1.67;1.57;;;;;;;;;;4984233;28;58075;-75
2023/09/08 04:32:45;;;;;;;1.80;1.70;;;;;;;;;;4977694;28;59934;-74
2023/09/08 04:35:10;;;;;;;1.70;1.60;;;;;;;;;;4976976;28;58983;-76
2023/09/08 04:37:36;;;;;;;1.47;1.37;;;;;;;;;;4979616;28;57858;-75
2023/09/08 04:40:01;;;;;;;1.58;1.48;;;;;;;;;;4978111;28;58500;-75
2023/09/08 04:42:27;;;;;;;1.50;1.40;;;;;;;;;;4975673;28;59100;-74
2023/09/08 04:44:52;;;;;;;1.58;1.48;;;;;;;;;;4977582;28;58080;-75
2023/09/08 04:47:17;;;;;;;1.90;1.80;;;;;;;;;;4980446;28;58641;-74
2023/09/08 04:49:42;;;;;;;1.70;1.60;;;;;;;;;;4975577;28;58809;-75
2023/09/08 04:52:08;;;;;;;2.20;2.00;;;;;;;;;;4977533;28;57837;-75
2023/09/08 04:54:33;;;;;;;1.70;1.52;;;;;;;;;;4978418;28;59279;-75
2023/09/08 04:56:58;;;;;;;1.42;1.33;;;;;;;;;;4979437;28;57998;-74
2023/09/08 04:59:24;;;;;;;1.70;1.60;;;;;;;;;;4972484;28;58064;-75
2023/09/08 05:01:49;;;;;;;1.63;1.53;;;;;;;;;;4975391;28;60279;-75
2023/09/08 05:04:16;;;;;;;1.40;1.30;;;;;;;;;;4977572;28;58288;-75
2023/09/08 05:06:42;;;;;;;1.75;1.65;;;;;;;;;;4972532;28;57875;-74
2023/09/08 05:09:07;;;;;;;2.20;2.00;;;;;;;;;;4979129;28;58342;-74
2023/09/08 05:11:32;;;;;;;2.03;1.85;;;;;;;;;;4977624;28;58187;-74
2023/09/08 05:13:58;;;;;;;1.63;1.53;;;;;;;;;;4975570;28;59996;-74
2023/09/08 05:16:36;;;;;;;1.87;1.60;;;;;;;;;;4976388;28;57817;-74
2023/09/08 05:19:02;;;;;;;2.90;1.70;;;;;;;;;;4979110;28;58743;-74
2023/09/08 05:21:27;;;;;;;1.77;1.67;;;;;;;;;;4977135;28;59312;-74
2023/09/08 05:23:52;;;;;;;2.30;2.20;;;;;;;;;;4975288;28;57876;-74
2023/09/08 05:26:17;;;;;;;1.70;1.60;;;;;;;;;;4973442;28;58579;-73
2023/09/08 05:28:42;;;;;;;2.05;1.88;;;;;;;;;;4976342;28;58037;-70
2023/09/08 05:31:07;;;;;;;2.43;2.27;;;;;;;;;;4976998;28;57935;-71
2023/09/08 05:33:33;;;;;;;2.53;2.20;;;;;;;;;;4983663;28;58874;-70
2023/09/08 05:35:58;;;;;;;3.78;1.92;;;;;;;;;;5000396;28;58095;-69
2023/09/08 05:38:25;;;;;;;2.30;2.10;;;;;;;;;;4989494;28;59015;-69
2023/09/08 05:40:50;;;;;;;3.37;1.40;;;;;;;;;;4981452;28;58912;-70
2023/09/08 05:43:15;;;;;;;4.47;1.97;;;;;;;;;;4985189;28;57803;-70
2023/09/08 05:45:41;;;;;;;4.50;2.08;;;;;;;;;;4983013;28;58419;-69
2023/09/08 05:48:06;;;;;;;5.40;3.13;;;;;;;;;;4984055;28;58033;-71
2023/09/08 05:50:31;;;;;;;5.00;2.63;;;;;;;;;;4979595;28;57892;-72
2023/09/08 05:52:56;;;;;;;6.40;3.77;;;;;;;;;;4981745;28;58354;-71
2023/09/08 05:55:21;;;;;;;3.42;2.42;;;;;;;;;;4984112;28;58154;-71
2023/09/08 05:57:47;;;;;;;2.70;2.50;;;;;;;;;;4981220;28;58576;-69
2023/09/08 06:00:12;;;;;;;3.30;2.30;;;;;;;;;;4977491;28;57938;-70
2023/09/08 06:02:37;;;;;;;4.03;2.55;;;;;;;;;;4979421;28;57796;-71
2023/09/08 06:05:03;;;;;;;3.80;3.27;;;;;;;;;;4975340;28;59049;-70
2023/09/08 06:07:28;;;;;;;2.80;2.60;;;;;;;;;;4976833;28;59794;-71
2023/09/08 06:09:53;;;;;;;6.03;2.20;;;;;;;;;;4980369;28;58155;-69
2023/09/08 06:12:18;;;;;;;2.83;2.42;;;;;;;;;;4978073;28;58689;-68
2023/09/08 06:14:43;;;;;;;2.58;2.38;;;;;;;;;;4978510;28;57912;-69
2023/09/08 06:17:09;;;;;;;4.50;3.17;;;;;;;;;;4978126;28;59795;-68
2023/09/08 06:19:34;;;;;;;3.08;2.72;;;;;;;;;;4977143;28;58872;-68
2023/09/08 06:22:00;;;;;;;4.28;3.63;;;;;;;;;;4978086;28;57825;-68
2023/09/08 06:24:25;;;;;;;2.45;2.25;;;;;;;;;;4982275;28;57932;-70
2023/09/08 06:26:50;;;;;;;2.60;2.33;;;;;;;;;;4983608;28;58911;-70
2023/09/08 06:29:15;;;;;;;5.90;2.80;;;;;;;;;;4983632;28;57904;-67
2023/09/08 06:31:40;;;;;;;2.20;2.00;;;;;;;;;;4977627;28;58964;-68
2023/09/08 06:34:05;;;;;;;2.35;1.67;;;;;;;;;;4977270;28;60508;-69
2023/09/08 06:36:31;;;;;;;2.63;2.20;;;;;;;;;;4979006;28;57821;-68
2023/09/08 06:38:56;;;;;;;3.43;2.47;;;;;;;;;;5002225;28;59592;-68
2023/09/08 06:41:22;;;;;;;4.63;2.03;;;;;;;;;;4983116;28;58016;-70
2023/09/08 06:43:48;;;;;;;2.67;2.47;;;;;;;;;;4986437;28;57744;-69
2023/09/08 06:46:13;;;;;;;3.28;2.58;;;;;;;;;;4984506;28;57895;-68
2023/09/08 06:48:38;;;;;;;2.50;2.30;;;;;;;;;;4987303;28;57809;-69
2023/09/08 06:51:03;;;;;;;2.47;2.27;;;;;;;;;;4978724;28;58938;-69
2023/09/08 06:53:28;;;;;;;2.65;2.45;;;;;;;;;;4982678;28;58110;-68
2023/09/08 06:55:54;;;;;;;3.03;2.55;;;;;;;;;;4993995;28;58083;-69
2023/09/08 06:58:19;;;;;;;3.00;2.40;;;;;;;;;;5005549;28;58027;-68
2023/09/08 07:00:44;;;;;;;3.95;2.63;;;;;;;;;;5004119;28;58082;-69
2023/09/08 07:03:09;;;;;;;4.00;2.33;;;;;;;;;;4986058;28;57917;-69
2023/09/08 07:05:35;;;;;;;2.67;2.40;;;;;;;;;;4982613;28;59005;-68
2023/09/08 07:08:00;;;;;;;4.97;1.98;;;;;;;;;;4983801;28;57937;-68
2023/09/08 07:10:25;;;;;;;2.83;2.23;;;;;;;;;;4982586;28;57837;-69
2023/09/08 07:12:51;;;;;;;2.53;2.33;;;;;;;;;;4978359;28;57968;-68
2023/09/08 07:15:16;;;;;;;2.50;1.90;;;;;;;;;;4985363;28;57860;-69
2023/09/08 07:17:41;;;;;;;2.63;1.87;;;;;;;;;;4986008;28;57952;-68
2023/09/08 07:20:07;;;;;;;2.50;2.30;;;;;;;;;;4984345;28;58375;-70
2023/09/08 07:22:32;;;;;;;2.80;2.55;;;;;;;;;;4984705;28;58888;-68
2023/09/08 07:24:57;;;;;;;2.50;1.70;;;;;;;;;;4984179;28;58420;-70
2023/09/08 07:27:23;;;;;;;2.17;1.98;;;;;;;;;;4985966;28;58023;-68
2023/09/08 07:29:49;;;;;;;2.50;2.30;;;;;;;;;;4982810;28;57697;-69
2023/09/08 07:32:14;;;;;;;2.30;2.10;;;;;;;;;;4983285;28;58068;-72
2023/09/08 07:34:39;;;;;;;2.40;2.20;;;;;;;;;;4983052;28;57768;-68
2023/09/08 07:37:05;;;;;;;3.28;2.03;;;;;;;;;;4985003;28;57896;-69
2023/09/08 07:39:30;;;;;;;2.57;2.03;;;;;;;;;;4985797;28;57988;-69
2023/09/08 07:41:56;;;;;;;2.10;2.00;;;;;;;;;;4985305;28;58026;-67
2023/09/08 07:44:21;;;;;;;2.60;2.40;;;;;;;;;;4983047;28;58868;-70
2023/09/08 07:46:48;;;;;;;2.33;1.95;;;;;;;;;;4982317;28;57925;-70
2023/09/08 07:49:14;;;;;;;3.10;2.65;;;;;;;;;;4984240;28;59662;-70
2023/09/08 07:51:40;;;;;;;2.05;1.90;;;;;;;;;;4984752;28;59128;-70
2023/09/08 07:54:05;;;;;;;2.35;2.15;;;;;;;;;;4982438;28;58092;-69
2023/09/08 07:56:30;;;;;;;2.47;2.28;;;;;;;;;;4984146;28;58419;-68
2023/09/08 07:58:55;;;;;;;1.70;1.60;;;;;;;;;;4982298;28;59015;-69
2023/09/08 08:01:20;;;;;;;2.38;2.17;;;;;;;;;;4983324;28;58180;-69
2023/09/08 08:03:46;;;;;;;2.30;2.00;;;;;;;;;;4983359;28;57918;-68
2023/09/08 08:06:11;;;;;;;2.47;2.28;;;;;;;;;;4983000;28;58046;-68
2023/09/08 08:08:38;;;;;;;2.30;2.20;;;;;;;;;;4984299;28;58036;-68
2023/09/08 08:11:08;;;;;;;2.28;2.08;;;;;;;;;;4983131;28;58696;-71
2023/09/08 08:13:33;;;;;;;2.85;2.30;;;;;;;;;;4985089;28;57892;-69
2023/09/08 08:15:58;;;;;;;2.55;2.35;;;;;;;;;;4984532;28;57862;-70
2023/09/08 08:18:23;;;;;;;2.60;2.40;;;;;;;;;;4982141;28;59348;-68
2023/09/08 08:20:48;;;;;;;3.13;1.80;;;;;;;;;;4984878;28;58051;-69
2023/09/08 08:23:13;;;;;;;2.97;2.50;;;;;;;;;;4981881;28;57926;-68
2023/09/08 08:25:39;;;;;;;1.90;1.80;;;;;;;;;;4981767;28;58343;-68
2023/09/08 08:28:04;;;;;;;2.50;1.97;;;;;;;;;;4983437;28;58482;-67
2023/09/08 08:30:29;;;;;;;2.70;2.13;;;;;;;;;;4985442;28;59005;-70
2023/09/08 08:32:54;;;;;;;2.00;1.80;;;;;;;;;;4984894;28;58057;-68
2023/09/08 08:35:20;;;;;;;2.00;1.90;;;;;;;;;;4984420;28;57983;-67
2023/09/08 08:37:45;;;;;;;2.15;1.95;;;;;;;;;;4983686;28;58077;-68
2023/09/08 08:40:12;;;;;;;2.10;1.90;;;;;;;;;;4984157;28;57931;-68
2023/09/08 08:42:37;;;;;;;2.67;2.47;;;;;;;;;;4984546;28;57852;-68
2023/09/08 08:45:03;;;;;;;2.23;1.97;;;;;;;;;;4983256;28;58903;-68
2023/09/08 08:47:28;;;;;;;2.55;2.35;;;;;;;;;;4982130;28;58374;-68
2023/09/08 08:49:56;;;;;;;2.55;2.15;;;;;;;;;;4983094;28;57893;-68
2023/09/08 08:52:21;;;;;;;3.17;2.35;;;;;;;;;;4986492;28;57809;-69
2023/09/08 08:54:46;;;;;;;1.70;1.60;;;;;;;;;;4983582;28;57977;-68
2023/09/08 08:57:12;;;;;;;2.23;1.93;;;;;;;;;;4983263;28;59008;-68
2023/09/08 08:59:37;;;;;;;2.25;2.05;;;;;;;;;;4984373;28;57396;-69
2023/09/08 09:02:03;;;;;;;1.57;1.47;;;;;;;;;;4984081;28;58966;-71
2023/09/08 09:04:28;;;;;;;2.38;2.17;;;;;;;;;;4983322;28;59209;-70
2023/09/08 09:06:54;;;;;;;2.83;1.73;;;;;;;;;;4982364;28;57901;-69
2023/09/08 09:09:19;;;;;;;2.53;2.10;;;;;;;;;;4984543;28;59081;-70
2023/09/08 09:11:44;;;;;;;1.63;1.53;;;;;;;;;;4983137;28;58389;-70
2023/09/08 09:14:09;;;;;;;2.03;1.92;;;;;;;;;;4983604;28;58165;-68
2023/09/08 09:16:44;;;;;;;4.55;2.08;;;;;;;;;;4980569;28;60028;-69
2023/09/08 09:19:10;;;;;;;2.60;1.83;;;;;;;;;;4983377;28;58071;-68
2023/09/08 09:21:42;;;;;;;2.92;2.13;;;;;;;;;;4984587;28;58518;-68
2023/09/08 09:24:07;;;;;;;2.13;2.00;;;;;;;;;;4982573;28;58928;-69
2023/09/08 09:26:33;;;;;;;2.30;2.03;;;;;;;;;;4980748;28;57826;-71
2023/09/08 09:28:59;;;;;;;1.73;1.63;;;;;;;;;;4993593;28;59663;-70
2023/09/08 09:31:25;;;;;;;2.05;1.92;;;;;;;;;;4982072;28;58010;-70
2023/09/08 09:34:04;;;;;;;2.83;2.03;;;;;;;;;;4981950;28;59610;-68
2023/09/08 09:36:29;;;;;;;2.45;2.25;;;;;;;;;;4984009;28;58372;-70
2023/09/08 09:38:58;;;;;;;1.92;1.83;;;;;;;;;;4981914;28;57744;-68
2023/09/08 09:41:23;;;;;;;1.90;1.80;;;;;;;;;;4983215;28;58803;-70
2023/09/08 09:43:48;;;;;;;1.73;1.63;;;;;;;;;;4981762;28;57882;-70
2023/09/08 09:46:14;;;;;;;2.43;2.23;;;;;;;;;;4981673;28;58145;-72
2023/09/08 09:48:39;;;;;;;2.05;1.60;;;;;;;;;;4983671;28;57975;-70
2023/09/08 09:51:19;;;;;;;2.20;2.10;;;;;;;;;;4983506;28;58080;-70
2023/09/08 09:53:44;;;;;;;2.30;1.95;;;;;;;;;;4981812;28;58843;-70
2023/09/08 09:56:10;;;;;;;2.20;2.00;;;;;;;;;;4981599;28;59415;-70
2023/09/08 09:58:37;;;;;;;3.30;2.10;;;;;;;;;;4981973;28;57973;-70
2023/09/08 10:01:02;;;;;;;2.25;2.05;;;;;;;;;;4979986;28;58786;-72
2023/09/08 10:03:27;;;;;;;2.03;1.93;;;;;;;;;;4983305;28;58401;-71
2023/09/08 10:05:53;;;;;;;2.30;2.10;;;;;;;;;;4982759;28;58167;-70
2023/09/08 10:08:18;;;;;;;1.92;1.83;;;;;;;;;;4983057;28;57586;-70
2023/09/08 10:10:45;;;;;;;2.23;2.03;;;;;;;;;;4981961;28;58491;-70
2023/09/08 10:13:12;;;;;;;2.40;2.20;;;;;;;;;;4982606;28;59061;-70
2023/09/08 10:15:38;;;;;;;2.03;1.60;;;;;;;;;;4980742;28;59487;-68
2023/09/08 10:18:06;;;;;;;1.92;1.83;;;;;;;;;;4982122;28;58190;-71
2023/09/08 10:20:31;;;;;;;;;;;;;;;;;;4982543;28;59644;-72
2023/09/08 10:23:02;;;;;;;2.60;2.27;;;;;;;;;;4981043;28;59672;-70
2023/09/08 10:25:30;;;;;;;2.03;1.90;;;;;;;;;;4980344;28;57624;-71
2023/09/08 10:27:56;;;;;;;2.08;1.98;;;;;;;;;;4982664;28;58577;-70
2023/09/08 10:30:21;;;;;;;2.28;2.10;;;;;;;;;;4985068;28;57977;-70
2023/09/08 10:32:49;;;;;;;1.88;1.77;;;;;;;;;;4983489;28;57685;-70
2023/09/08 10:35:15;;;;;;;1.58;1.48;;;;;;;;;;4984341;28;59321;-70
2023/09/08 10:37:40;;;;;;;3.65;2.15;;;;;;;;;;4984319;28;57840;-68
2023/09/08 10:40:22;;;;;;;2.75;1.50;;;;;;;;;;4986091;28;57867;-68
2023/09/08 10:42:47;;;;;;;1.48;1.38;;;;;;;;;;4984921;28;57925;-71
2023/09/08 10:45:17;;;;;;;2.03;1.93;;;;;;;;;;4984475;28;58220;-71
2023/09/08 10:47:45;;;;;;;2.08;1.52;;;;;;;;;;4985876;28;59560;-70
2023/09/08 10:50:15;;;;;;;1.80;1.60;;;;;;;;;;4984937;28;59065;-70
2023/09/08 10:52:41;;;;;;;2.20;1.88;;;;;;;;;;4983420;28;58091;-70
2023/09/08 10:55:06;;;;;;;2.25;1.85;;;;;;;;;;4985663;28;57849;-70
2023/09/08 10:57:33;;;;;;;1.88;1.77;;;;;;;;;;4985598;28;57892;-71
2023/09/08 11:00:00;;;;;;;1.83;1.73;;;;;;;;;;4983596;28;59676;-71
2023/09/08 11:02:36;;;;;;;2.65;2.45;;;;;;;;;;4983401;28;59117;-72
2023/09/08 11:05:04;;;;;;;1.60;1.50;;;;;;;;;;4984802;28;58154;-72
2023/09/08 11:07:29;;;;;;;2.22;2.00;;;;;;;;;;4985045;28;58971;-71
2023/09/08 11:09:55;;;;;;;2.10;1.90;;;;;;;;;;4985812;28;58798;-71
2023/09/08 11:12:22;;;;;;;2.65;2.25;;;;;;;;;;4987316;28;58117;-71
2023/09/08 11:14:48;;;;;;;2.22;2.03;;;;;;;;;;4985514;28;58301;-71
2023/09/08 11:17:13;;;;;;;1.77;1.67;;;;;;;;;;4984736;28;58033;-70
2023/09/08 11:19:45;;;;;;;2.37;1.80;;;;;;;;;;4982061;28;59248;-70
2023/09/08 11:22:10;;;;;;;2.28;2.10;;;;;;;;;;4984917;28;58418;-70
2023/09/08 11:24:41;;;;;;;1.60;1.50;;;;;;;;;;4985608;28;57829;-74
2023/09/08 11:27:06;;;;;;;2.13;2.00;;;;;;;;;;4984307;28;60276;-70
2023/09/08 11:29:32;;;;;;;2.33;1.87;;;;;;;;;;4985103;28;58093;-71
2023/09/08 11:31:58;;;;;;;1.75;1.60;;;;;;;;;;4985051;28;57966;-71
2023/09/08 11:34:23;;;;;;;2.55;2.25;;;;;;;;;;4983222;28;57851;-72
2023/09/08 11:36:48;;;;;;;2.30;2.10;;;;;;;;;;4985430;28;58964;-73
2023/09/08 11:39:14;;;;;;;2.40;1.77;;;;;;;;;;4986882;28;58093;-73
2023/09/08 11:41:39;;;;;;;2.55;2.35;;;;;;;;;;4984619;28;58170;-72
2023/09/08 11:44:04;;;;;;;2.07;1.83;;;;;;;;;;4984207;28;57836;-73
2023/09/08 11:46:30;;;;;;;3.60;1.90;;;;;;;;;;4984270;28;58005;-73
2023/09/08 11:48:55;;;;;;;3.72;1.75;;;;;;;;;;4983266;28;58069;-73
2023/09/08 11:51:24;;;;;;;1.63;1.25;;;;;;;;;;4984048;28;57709;-72
2023/09/08 11:53:49;;;;;;;1.90;1.80;;;;;;;;;;4986420;28;59048;-72
2023/09/08 11:56:14;;;;;;;2.93;2.03;;;;;;;;;;4980314;28;58104;-73
2023/09/08 11:58:40;;;;;;;3.20;1.43;;;;;;;;;;4977597;28;58113;-73
2023/09/08 12:01:05;;;;;;;6.20;2.03;;;;;;;;;;4981281;28;57842;-72
2023/09/08 12:03:30;;;;;;;2.90;2.00;;;;;;;;;;4983236;28;57872;-72
2023/09/08 12:05:55;;;;;;;3.30;2.47;;;;;;;;;;4978556;28;59507;-72
2023/09/08 12:08:20;;;;;;;2.40;2.20;;;;;;;;;;4982289;28;59859;-72
2023/09/08 12:10:46;;;;;;;2.47;2.17;;;;;;;;;;4985579;28;58129;-73
2023/09/08 12:13:13;;;;;;;3.47;1.70;;;;;;;;;;4984144;28;58512;-73
2023/09/08 12:15:39;;;;;;;2.35;1.83;;;;;;;;;;4984074;28;59242;-73
2023/09/08 12:18:06;;;;;;;1.73;1.63;;;;;;;;;;4983627;28;58024;-73
2023/09/08 12:20:32;;;;;;;2.25;2.00;;;;;;;;;;4982800;28;58570;-72
2023/09/08 12:23:01;;;;;;;3.83;1.77;;;;;;;;;;4983888;28;57937;-72
2023/09/08 12:25:27;;;;;;;2.63;2.00;;;;;;;;;;4981299;28;57987;-73
2023/09/08 12:27:53;;;;;;;2.78;1.60;;;;;;;;;;4981998;28;59827;-72
2023/09/08 12:30:19;;;;;;;2.03;1.60;;;;;;;;;;4983573;28;57927;-72
2023/09/08 12:32:45;;;;;;;4.63;1.73;;;;;;;;;;4980815;28;58432;-72
2023/09/08 12:35:11;;;;;;;1.88;1.77;;;;;;;;;;4983306;28;59495;-73
2023/09/08 12:37:38;;;;;;;2.97;2.13;;;;;;;;;;4980584;28;58078;-73
2023/09/08 12:40:03;;;;;;;2.03;1.55;;;;;;;;;;4985123;28;58805;-74
2023/09/08 12:42:29;;;;;;;2.17;1.88;;;;;;;;;;5004227;28;58354;-74
2023/09/08 12:44:54;;;;;;;2.90;1.50;;;;;;;;;;4984499;28;58974;-71
2023/09/08 12:47:19;;;;;;;1.83;1.70;;;;;;;;;;4983200;28;58718;-71
2023/09/08 12:49:45;;;;;;;2.00;1.50;;;;;;;;;;4981704;28;57837;-71
2023/09/08 12:52:10;;;;;;;1.70;1.60;;;;;;;;;;4983551;28;58034;-70
2023/09/08 12:54:35;;;;;;;1.70;1.60;;;;;;;;;;4981827;28;59162;-72
2023/09/08 12:57:01;;;;;;;1.90;1.80;;;;;;;;;;4982688;28;57801;-70
2023/09/08 12:59:26;;;;;;;1.42;1.33;;;;;;;;;;4982439;28;58481;-71
2023/09/08 13:01:51;;;;;;;2.07;1.87;;;;;;;;;;4982578;28;58218;-70
2023/09/08 13:04:16;;;;;;;1.85;1.75;;;;;;;;;;4982865;28;58161;-70
2023/09/08 13:06:41;;;;;;;1.95;1.85;;;;;;;;;;4982635;28;57953;-71
2023/09/08 13:09:08;;;;;;;3.47;1.60;;;;;;;;;;4984791;28;58135;-70
2023/09/08 13:11:33;;;;;;;2.10;1.90;;;;;;;;;;4983044;28;59006;-71
2023/09/08 13:13:58;;;;;;;1.97;1.80;;;;;;;;;;4982362;28;58080;-70
2023/09/08 13:16:23;;;;;;;1.85;1.70;;;;;;;;;;4974175;28;58072;-67
2023/09/08 13:18:49;;;;;;;5.10;2.77;;;;;;;;;;4980828;28;58012;-66
2023/09/08 13:21:14;;;;;;;2.10;1.90;;;;;;;;;;4984298;28;59213;-69
2023/09/08 13:23:39;;;;;;;4.80;2.22;;;;;;;;;;4980360;28;57788;-68
2023/09/08 13:26:04;;;;;;;3.38;2.00;;;;;;;;;;4979880;28;59535;-69
2023/09/08 13:28:30;;;;;;;2.63;2.20;;;;;;;;;;4983477;28;58127;-69
2023/09/08 13:30:55;;;;;;;3.80;1.35;;;;;;;;;;4981979;28;57968;-67
2023/09/08 13:33:20;;;;;;;2.77;1.70;;;;;;;;;;4982532;28;57768;-72
2023/09/08 13:35:45;;;;;;;2.37;2.17;;;;;;;;;;4981782;28;58246;-69
2023/09/08 13:38:10;;;;;;;1.53;1.43;;;;;;;;;;4980227;28;58937;-67
2023/09/08 13:40:35;;;;;;;2.37;1.80;;;;;;;;;;4981833;28;57907;-76
2023/09/08 13:43:01;;;;;;;13.63;3.17;;;;;;;;;;4980228;28;57776;-69
2023/09/08 13:45:26;;;;;;;3.20;1.80;;;;;;;;;;4983059;28;58386;-70
2023/09/08 13:47:51;;;;;;;4.13;1.55;;;;;;;;;;4982559;28;58241;-74
2023/09/08 13:50:16;;;;;;;2.07;1.80;;;;;;;;;;4983200;28;57939;-75
2023/09/08 13:52:41;;;;;;;2.07;1.97;;;;;;;;;;4979901;28;58002;-71
2023/09/08 13:55:07;;;;;;;5.10;1.92;;;;;;;;;;4984189;28;58063;-70
2023/09/08 13:57:32;;;;;;;5.53;1.90;;;;;;;;;;4983071;28;58134;-72
2023/09/08 13:59:57;;;;;;;2.83;1.73;;;;;;;;;;4979445;28;59824;-72
2023/09/08 14:02:22;;;;;;;3.33;1.90;;;;;;;;;;4981625;28;58120;-72
2023/09/08 14:04:47;;;;;;;6.83;2.17;;;;;;;;;;4983231;28;58694;-71
2023/09/08 14:07:13;;;;;;;3.45;1.90;;;;;;;;;;4982449;28;58988;-73
2023/09/08 14:09:39;;;;;;;2.58;1.98;;;;;;;;;;4986888;28;57868;-73
2023/09/08 14:12:04;;;;;;;2.50;1.90;;;;;;;;;;4985521;28;58744;-72
2023/09/08 14:14:29;;;;;;;2.15;1.95;;;;;;;;;;4986012;28;58190;-73
2023/09/08 14:16:54;;;;;;;2.70;2.20;;;;;;;;;;4982386;28;57894;-72
2023/09/08 14:19:19;;;;;;;3.67;1.43;;;;;;;;;;4984872;28;59121;-72
2023/09/08 14:21:44;;;;;;;2.20;2.00;;;;;;;;;;4984785;28;57866;-73
2023/09/08 14:24:10;;;;;;;5.10;2.40;;;;;;;;;;4986361;28;57958;-72
2023/09/08 14:26:35;;;;;;;1.92;1.73;;;;;;;;;;4982747;28;58718;-73
2023/09/08 14:29:01;;;;;;;3.27;2.07;;;;;;;;;;4987633;28;58090;-72
2023/09/08 14:31:26;;;;;;;3.33;1.58;;;;;;;;;;4981337;28;59261;-72
2023/09/08 14:33:51;;;;;;;2.00;1.80;;;;;;;;;;4986480;28;58124;-72